createdAt,value
2018-08-16T00:00:56.439Z,24.50
2018-08-16T00:03:24.741Z,24.60
2018-08-16T00:05:53.041Z,24.50
2018-08-16T00:08:21.330Z,24.60
2018-08-16T00:10:49.647Z,24.60
2018-08-16T00:13:17.929Z,24.50
2018-08-16T00:15:46.228Z,24.60
2018-08-16T00:18:14.516Z,24.50
2018-08-16T00:20:42.798Z,24.50
2018-08-16T00:23:11.080Z,24.50
2018-08-16T00:25:39.425Z,24.50
2018-08-16T00:28:07.711Z,24.50
2018-08-16T00:30:36.003Z,24.50
2018-08-16T00:33:04.316Z,24.50
2018-08-16T00:35:32.583Z,24.50
2018-08-16T00:38:00.850Z,24.50
2018-08-16T00:40:29.171Z,24.50
2018-08-16T00:42:57.486Z,24.50
2018-08-16T00:45:25.903Z,24.50
2018-08-16T00:47:54.195Z,24.40
2018-08-16T00:50:22.477Z,24.40
2018-08-16T00:52:51.172Z,24.40
2018-08-16T00:55:19.520Z,24.40
2018-08-16T00:57:48.048Z,24.40
2018-08-16T01:00:17.094Z,24.40
2018-08-16T01:02:45.779Z,24.40
2018-08-16T01:05:14.490Z,24.40
2018-08-16T01:07:42.800Z,24.40
2018-08-16T01:10:12.747Z,24.40
2018-08-16T01:12:41.872Z,24.40
2018-08-16T01:15:12.058Z,24.40
2018-08-16T01:17:40.693Z,24.40
2018-08-16T01:20:09.387Z,24.40
2018-08-16T01:22:37.683Z,24.40
2018-08-16T01:25:06.680Z,24.40
2018-08-16T01:27:35.099Z,24.40
2018-08-16T01:30:03.427Z,24.40
2018-08-16T01:32:31.835Z,24.30
2018-08-16T01:35:00.112Z,24.30
2018-08-16T01:37:28.411Z,24.30
2018-08-16T01:39:56.711Z,24.30
2018-08-16T01:42:25.009Z,24.30
2018-08-16T01:44:53.259Z,24.30
2018-08-16T01:47:21.570Z,24.30
2018-08-16T01:49:49.909Z,24.30
2018-08-16T01:52:18.201Z,24.30
2018-08-16T01:54:46.475Z,24.30
2018-08-16T01:57:14.747Z,24.30
2018-08-16T01:59:43.016Z,24.20
2018-08-16T02:02:11.319Z,24.20
2018-08-16T02:04:39.595Z,24.20
2018-08-16T02:07:07.861Z,24.20
2018-08-16T02:09:36.210Z,24.20
2018-08-16T02:12:04.499Z,24.20
2018-08-16T02:14:32.762Z,24.20
2018-08-16T02:17:01.121Z,24.20
2018-08-16T02:19:29.398Z,24.20
2018-08-16T02:21:57.676Z,24.30
2018-08-16T02:24:25.946Z,24.20
2018-08-16T02:26:54.259Z,24.20
2018-08-16T02:29:22.554Z,24.20
2018-08-16T02:31:50.823Z,24.20
2018-08-16T02:34:19.107Z,24.20
2018-08-16T02:36:47.363Z,24.20
2018-08-16T02:39:15.656Z,24.20
2018-08-16T02:41:43.947Z,24.20
2018-08-16T02:44:12.253Z,24.20
2018-08-16T02:46:40.526Z,24.20
2018-08-16T02:49:08.781Z,24.20
2018-08-16T02:51:37.082Z,24.20
2018-08-16T02:54:05.477Z,24.20
2018-08-16T02:56:33.755Z,24.20
2018-08-16T02:59:02.026Z,24.20
2018-08-16T03:01:30.327Z,24.20
2018-08-16T03:03:58.637Z,24.10
2018-08-16T03:06:26.957Z,24.20
2018-08-16T03:08:55.240Z,24.20
2018-08-16T03:11:23.592Z,24.10
2018-08-16T03:13:51.882Z,24.20
2018-08-16T03:16:20.173Z,24.10
2018-08-16T03:18:48.527Z,24.20
2018-08-16T03:21:16.836Z,24.10
2018-08-16T03:23:45.102Z,24.10
2018-08-16T03:26:13.427Z,24.10
2018-08-16T03:28:41.674Z,24.10
2018-08-16T03:31:10.010Z,24.10
2018-08-16T03:33:38.394Z,24.10
2018-08-16T03:36:06.695Z,24.10
2018-08-16T03:38:34.973Z,24.10
2018-08-16T03:41:03.254Z,24.10
2018-08-16T03:43:31.538Z,24.10
2018-08-16T03:45:59.830Z,24.00
2018-08-16T03:48:28.110Z,24.10
2018-08-16T03:50:56.391Z,24.10
2018-08-16T03:53:24.682Z,24.00
2018-08-16T03:55:52.938Z,24.00
2018-08-16T03:58:21.199Z,24.00
2018-08-16T04:00:49.495Z,24.10
2018-08-16T04:03:17.784Z,24.00
2018-08-16T04:05:46.064Z,24.00
2018-08-16T04:08:14.340Z,24.00
2018-08-16T04:10:42.656Z,24.00
2018-08-16T04:13:11.140Z,24.10
2018-08-16T04:15:39.422Z,24.00
2018-08-16T04:18:08.167Z,24.00
2018-08-16T04:20:36.457Z,24.00
2018-08-16T04:23:04.714Z,24.00
2018-08-16T04:25:33.001Z,24.00
2018-08-16T04:28:01.412Z,24.00
2018-08-16T04:30:29.855Z,24.00
2018-08-16T04:32:58.171Z,24.00
2018-08-16T04:35:26.542Z,24.00
2018-08-16T04:37:54.734Z,24.00
2018-08-16T04:40:23.056Z,24.00
2018-08-16T04:42:51.492Z,24.00
2018-08-16T04:45:19.772Z,24.00
2018-08-16T04:47:48.035Z,24.00
2018-08-16T04:50:16.327Z,24.00
2018-08-16T04:52:44.608Z,24.00
2018-08-16T04:55:13.192Z,24.00
2018-08-16T04:57:41.460Z,24.00
2018-08-16T05:00:11.553Z,24.00
2018-08-16T05:02:40.058Z,24.00
2018-08-16T05:05:08.851Z,23.90
2018-08-16T05:07:37.413Z,23.90
2018-08-16T05:10:06.856Z,24.00
2018-08-16T05:12:35.155Z,24.00
2018-08-16T05:15:03.594Z,23.90
2018-08-16T05:17:31.875Z,24.00
2018-08-16T05:20:00.175Z,24.00
2018-08-16T05:22:28.447Z,24.00
2018-08-16T05:24:56.718Z,23.90
2018-08-16T05:27:25.019Z,23.90
2018-08-16T05:29:53.270Z,23.90
2018-08-16T05:32:21.535Z,23.90
2018-08-16T05:34:49.785Z,23.90
2018-08-16T05:37:18.064Z,23.90
2018-08-16T05:39:46.358Z,23.90
2018-08-16T05:42:14.626Z,23.90
2018-08-16T05:44:42.894Z,23.90
2018-08-16T05:47:11.183Z,23.90
2018-08-16T05:49:39.499Z,24.00
2018-08-16T05:52:07.985Z,23.90
2018-08-16T05:54:36.239Z,23.90
2018-08-16T05:57:04.510Z,23.90
2018-08-16T05:59:32.766Z,23.90
2018-08-16T06:02:01.039Z,24.00
2018-08-16T06:04:29.305Z,23.90
2018-08-16T06:06:57.611Z,23.90
2018-08-16T06:09:25.898Z,23.90
2018-08-16T06:11:54.224Z,24.00
2018-08-16T06:14:22.492Z,24.00
2018-08-16T06:16:50.856Z,24.00
2018-08-16T06:19:19.119Z,24.00
2018-08-16T06:21:47.378Z,24.00
2018-08-16T06:24:15.666Z,24.00
2018-08-16T06:26:43.943Z,24.00
2018-08-16T06:29:12.223Z,24.00
2018-08-16T06:31:40.518Z,24.00
2018-08-16T06:34:08.750Z,24.00
2018-08-16T06:36:37.027Z,24.00
2018-08-16T06:39:08.663Z,24.00
2018-08-16T06:41:37.004Z,24.00
2018-08-16T06:44:05.383Z,24.00
2018-08-16T06:46:33.671Z,24.00
2018-08-16T06:49:01.971Z,24.00
2018-08-16T06:51:30.267Z,24.00
2018-08-16T06:53:58.573Z,24.00
2018-08-16T06:56:26.841Z,24.00
2018-08-16T06:58:55.243Z,24.00
2018-08-16T07:01:23.530Z,24.00
2018-08-16T07:03:51.874Z,24.00
2018-08-16T07:06:20.165Z,24.00
2018-08-16T07:08:48.466Z,24.00
2018-08-16T07:11:16.742Z,24.00
2018-08-16T07:13:45.007Z,24.00
2018-08-16T07:16:13.291Z,24.00
2018-08-16T07:18:41.630Z,24.10
2018-08-16T07:21:09.856Z,24.10
2018-08-16T07:23:38.143Z,24.10
2018-08-16T07:26:06.467Z,24.10
2018-08-16T07:28:34.728Z,24.10
2018-08-16T07:31:03.135Z,24.10
2018-08-16T07:33:31.459Z,24.20
2018-08-16T07:35:59.760Z,24.20
2018-08-16T07:38:28.046Z,24.20
2018-08-16T07:40:56.356Z,24.20
2018-08-16T07:43:24.852Z,24.20
2018-08-16T07:45:53.371Z,24.20
2018-08-16T07:48:21.426Z,24.20
2018-08-16T07:50:49.674Z,24.20
2018-08-16T07:53:17.960Z,24.20
2018-08-16T07:55:46.241Z,24.20
2018-08-16T07:58:14.563Z,23.20
2018-08-16T08:00:42.819Z,24.20
2018-08-16T08:03:11.138Z,24.30
2018-08-16T08:05:39.412Z,24.30
2018-08-16T08:08:07.768Z,24.40
2018-08-16T08:10:36.072Z,24.40
2018-08-16T08:13:04.514Z,24.40
2018-08-16T08:15:32.905Z,24.40
2018-08-16T08:18:01.127Z,24.40
2018-08-16T08:20:29.440Z,24.40
2018-08-16T08:22:57.699Z,24.50
2018-08-16T08:25:26.049Z,24.40
2018-08-16T08:27:54.303Z,24.50
2018-08-16T08:30:22.897Z,24.50
2018-08-16T08:32:51.156Z,24.60
2018-08-16T08:35:19.435Z,24.60
2018-08-16T08:37:58.515Z,24.60
2018-08-16T08:40:26.846Z,24.50
2018-08-16T08:42:55.107Z,24.40
2018-08-16T08:45:23.371Z,24.20
2018-08-16T08:47:55.707Z,24.10
2018-08-16T08:50:24.488Z,24.20
2018-08-16T08:52:52.740Z,24.20
2018-08-16T08:55:32.364Z,24.20
2018-08-16T08:58:12.036Z,24.30
2018-08-16T09:00:40.283Z,24.30
2018-08-16T09:03:08.615Z,24.40
2018-08-16T09:05:36.873Z,24.40
2018-08-16T09:08:05.863Z,24.40
2018-08-16T09:10:55.395Z,24.40
2018-08-16T09:13:36.050Z,24.40
2018-08-16T09:16:07.180Z,24.40
2018-08-16T09:18:35.582Z,24.30
2018-08-16T09:21:03.870Z,24.30
2018-08-16T09:23:32.237Z,24.30
2018-08-16T09:26:00.551Z,24.30
2018-08-16T09:28:28.831Z,24.30
2018-08-16T09:31:08.579Z,24.30
2018-08-16T09:33:48.310Z,24.30
2018-08-16T09:36:16.595Z,24.30
2018-08-16T09:38:44.845Z,24.30
2018-08-16T09:41:13.152Z,24.30
2018-08-16T09:43:41.466Z,24.20
2018-08-16T09:48:19.974Z,23.90
2018-08-16T09:50:48.296Z,23.80
2018-08-16T09:53:16.609Z,23.70
2018-08-16T09:55:44.865Z,23.70
2018-08-16T09:58:13.180Z,23.60
2018-08-16T10:00:47.040Z,23.70
2018-08-16T10:03:15.339Z,23.80
2018-08-16T10:05:43.725Z,23.90
2018-08-16T10:08:12.009Z,23.90
2018-08-16T10:10:40.311Z,24.00
2018-08-16T10:13:08.616Z,24.00
2018-08-16T10:15:36.924Z,23.90
2018-08-16T10:18:05.577Z,23.70
2018-08-16T10:20:33.947Z,23.60
2018-08-16T10:23:03.846Z,23.60
2018-08-16T10:25:32.256Z,23.50
2018-08-16T10:28:00.571Z,23.40
2018-08-16T10:30:28.883Z,23.40
2018-08-16T10:32:57.260Z,23.40
2018-08-16T10:35:25.717Z,23.50
2018-08-16T10:37:54.043Z,23.50
2018-08-16T10:40:22.318Z,23.40
2018-08-16T10:42:50.678Z,23.50
2018-08-16T10:45:19.035Z,23.50
2018-08-16T10:47:47.451Z,23.50
2018-08-16T10:50:15.783Z,23.50
2018-08-16T10:52:44.304Z,23.40
2018-08-16T10:55:12.673Z,23.50
2018-08-16T10:57:41.042Z,23.60
2018-08-16T11:00:09.410Z,23.70
2018-08-16T11:02:37.778Z,23.70
2018-08-16T11:05:06.184Z,23.80
2018-08-16T11:07:34.617Z,23.80
2018-08-16T11:10:02.827Z,23.80
2018-08-16T11:12:31.152Z,23.80
2018-08-16T11:14:59.471Z,23.90
2018-08-16T11:17:27.767Z,23.80
2018-08-16T11:19:56.086Z,23.90
2018-08-16T11:22:24.394Z,23.90
2018-08-16T11:24:52.806Z,23.90
2018-08-16T11:27:21.128Z,24.00
2018-08-16T11:29:49.432Z,24.00
2018-08-16T11:32:17.743Z,23.90
2018-08-16T11:34:46.029Z,24.00
2018-08-16T11:37:15.491Z,24.00
2018-08-16T11:39:43.750Z,24.00
2018-08-16T11:42:12.064Z,24.00
2018-08-16T11:44:40.363Z,24.00
2018-08-16T11:47:08.667Z,24.00
2018-08-16T11:49:36.939Z,24.00
2018-08-16T11:52:05.289Z,24.00
2018-08-16T11:54:33.578Z,24.10
2018-08-16T11:57:01.845Z,24.10
2018-08-16T11:59:30.152Z,24.10
2018-08-16T12:01:58.460Z,24.10
2018-08-16T12:04:26.733Z,24.10
2018-08-16T12:06:55.080Z,24.00
2018-08-16T12:09:23.360Z,23.90
2018-08-16T12:11:51.686Z,23.80
2018-08-16T12:14:20.076Z,23.70
2018-08-16T12:16:48.372Z,23.70
2018-08-16T12:19:16.677Z,23.70
2018-08-16T12:21:45.016Z,23.60
2018-08-16T12:24:13.320Z,23.60
2018-08-16T12:26:41.879Z,23.50
2018-08-16T12:29:10.223Z,23.60
2018-08-16T12:31:38.964Z,23.70
2018-08-16T12:34:07.407Z,23.70
2018-08-16T12:36:35.769Z,23.70
2018-08-16T12:39:05.684Z,23.70
2018-08-16T12:41:34.291Z,23.70
2018-08-16T12:44:02.804Z,23.60
2018-08-16T12:46:31.139Z,23.60
2018-08-16T12:48:59.462Z,23.60
2018-08-16T12:51:27.782Z,23.70
2018-08-16T12:53:56.116Z,23.70
2018-08-16T12:56:24.418Z,23.80
2018-08-16T12:58:52.739Z,23.80
2018-08-16T13:01:21.104Z,23.80
2018-08-16T13:03:49.433Z,23.80
2018-08-16T13:06:17.746Z,23.90
2018-08-16T13:08:46.712Z,23.90
2018-08-16T13:11:15.013Z,23.90
2018-08-16T13:13:43.380Z,23.80
2018-08-16T13:16:11.668Z,23.80
2018-08-16T13:18:39.985Z,23.90
2018-08-16T13:21:08.562Z,23.90
2018-08-16T13:23:37.026Z,23.90
2018-08-16T13:26:05.466Z,24.00
2018-08-16T13:28:33.843Z,24.10
2018-08-16T13:31:02.161Z,24.20
2018-08-16T13:33:30.476Z,24.20
2018-08-16T13:35:58.782Z,24.10
2018-08-16T13:38:27.099Z,24.10
2018-08-16T13:40:55.483Z,24.00
2018-08-16T13:43:23.816Z,24.00
2018-08-16T13:45:52.188Z,23.90
2018-08-16T13:48:20.527Z,23.90
2018-08-16T13:50:48.764Z,24.00
2018-08-16T13:53:17.108Z,24.00
2018-08-16T13:55:45.383Z,24.20
2018-08-16T13:58:13.639Z,24.20
2018-08-16T14:00:41.954Z,24.20
2018-08-16T14:03:10.241Z,24.20
2018-08-16T14:05:38.486Z,24.30
2018-08-16T14:08:06.935Z,24.30
2018-08-16T14:10:35.238Z,24.30
2018-08-16T14:13:03.546Z,24.30
2018-08-16T14:15:31.819Z,24.30
2018-08-16T14:18:00.128Z,24.20
2018-08-16T14:20:28.420Z,24.00
2018-08-16T14:22:56.717Z,24.00
2018-08-16T14:25:25.030Z,24.00
2018-08-16T14:27:53.318Z,24.00
2018-08-16T14:30:21.669Z,24.00
2018-08-16T14:32:49.965Z,24.00
2018-08-16T14:35:18.238Z,24.00
2018-08-16T14:37:46.555Z,24.10
2018-08-16T14:40:14.985Z,24.00
2018-08-16T14:42:43.299Z,23.90
2018-08-16T14:45:11.614Z,23.90
2018-08-16T14:47:40.004Z,23.90
2018-08-16T14:50:08.380Z,23.90
2018-08-16T14:52:36.720Z,23.80
2018-08-16T14:55:05.337Z,23.80
2018-08-16T14:57:33.682Z,23.90
2018-08-16T15:00:02.041Z,24.00
2018-08-16T15:02:30.333Z,24.00
2018-08-16T15:04:58.643Z,24.10
2018-08-16T15:07:26.946Z,24.10
2018-08-16T15:09:55.234Z,24.10
2018-08-16T15:12:23.586Z,24.10
2018-08-16T15:14:51.877Z,24.10
2018-08-16T15:17:20.189Z,24.20
2018-08-16T15:19:48.649Z,24.20
2018-08-16T15:22:17.019Z,24.20
2018-08-16T15:24:45.302Z,24.10
2018-08-16T15:27:13.573Z,24.20
2018-08-16T15:29:41.886Z,24.10
2018-08-16T15:32:10.241Z,24.10
2018-08-16T15:34:38.528Z,24.10
2018-08-16T15:37:06.820Z,24.10
2018-08-16T15:39:35.235Z,24.10
2018-08-16T15:42:03.463Z,24.10
2018-08-16T15:44:31.802Z,24.10
2018-08-16T15:47:00.126Z,24.10
2018-08-16T15:49:28.446Z,24.20
2018-08-16T15:51:56.748Z,24.20
2018-08-16T15:54:25.120Z,24.20
2018-08-16T15:56:53.583Z,24.20
2018-08-16T15:59:22.076Z,24.20
2018-08-16T16:01:50.371Z,24.20
2018-08-16T16:04:18.697Z,24.20
2018-08-16T16:06:47.308Z,24.20
2018-08-16T16:09:15.753Z,24.20
2018-08-16T16:11:44.057Z,24.20
2018-08-16T16:14:12.681Z,24.20
2018-08-16T16:16:40.968Z,24.20
2018-08-16T16:19:09.274Z,24.20
2018-08-16T16:21:37.593Z,24.20
2018-08-16T16:24:05.934Z,24.20
2018-08-16T16:26:34.220Z,24.20
2018-08-16T16:29:02.562Z,24.30
2018-08-16T16:31:30.896Z,24.30
2018-08-16T16:33:59.200Z,24.30
2018-08-16T16:36:27.571Z,24.30
2018-08-16T16:38:55.828Z,24.30
2018-08-16T16:41:24.166Z,24.30
2018-08-16T16:43:52.560Z,24.30
2018-08-16T16:46:20.908Z,24.30
2018-08-16T16:48:49.236Z,24.30
2018-08-16T16:51:17.571Z,24.30
2018-08-16T16:53:45.914Z,24.30
2018-08-16T16:56:14.275Z,24.30
2018-08-16T16:58:42.723Z,24.30
2018-08-16T17:01:11.124Z,24.20
2018-08-16T17:03:39.399Z,24.20
2018-08-16T17:06:07.695Z,24.20
2018-08-16T17:08:35.991Z,24.20
2018-08-16T17:11:04.320Z,24.10
2018-08-16T17:13:32.607Z,24.20
2018-08-16T17:16:00.999Z,24.20
2018-08-16T17:18:29.322Z,24.10
2018-08-16T17:20:57.673Z,24.10
2018-08-16T17:23:26.046Z,24.10
2018-08-16T17:25:54.341Z,24.10
2018-08-16T17:28:22.631Z,24.00
2018-08-16T17:30:50.934Z,24.10
2018-08-16T17:33:19.336Z,24.00
2018-08-16T17:35:47.645Z,24.00
2018-08-16T17:38:16.969Z,24.00
2018-08-16T17:40:46.663Z,24.00
2018-08-16T17:43:15.909Z,24.00
2018-08-16T17:45:44.351Z,24.00
2018-08-16T17:48:12.864Z,23.90
2018-08-16T17:50:41.235Z,23.80
2018-08-16T17:53:09.600Z,23.70
2018-08-16T17:55:38.566Z,23.80
2018-08-16T17:58:07.918Z,23.70
2018-08-16T18:00:37.515Z,23.80
2018-08-16T18:03:05.970Z,23.80
2018-08-16T18:05:34.612Z,23.90
2018-08-16T18:08:04.556Z,23.90
2018-08-16T18:10:34.155Z,24.00
2018-08-16T18:13:02.535Z,24.00
2018-08-16T18:15:31.016Z,24.00
2018-08-16T18:17:59.314Z,24.00
2018-08-16T18:20:27.637Z,24.00
2018-08-16T18:22:56.004Z,24.10
2018-08-16T18:25:24.292Z,24.10
2018-08-16T18:27:52.643Z,24.10
2018-08-16T18:30:21.191Z,24.10
2018-08-16T18:32:49.507Z,24.20
2018-08-16T18:35:17.890Z,24.20
2018-08-16T18:37:46.440Z,24.20
2018-08-16T18:40:14.910Z,24.20
2018-08-16T18:42:43.232Z,24.20
2018-08-16T18:45:11.567Z,24.20
2018-08-16T18:47:39.890Z,24.20
2018-08-16T18:50:09.724Z,24.20
2018-08-16T18:52:38.036Z,24.20
2018-08-16T18:55:07.006Z,24.20
2018-08-16T18:57:35.321Z,24.20
2018-08-16T19:00:03.852Z,24.20
2018-08-16T19:02:32.152Z,24.30
2018-08-16T19:05:00.472Z,24.30
2018-08-16T19:07:28.902Z,24.30
2018-08-16T19:09:57.185Z,24.30
2018-08-16T19:12:25.515Z,24.30
2018-08-16T19:14:53.816Z,24.30
2018-08-16T19:17:22.118Z,24.20
2018-08-16T19:19:50.403Z,24.20
2018-08-16T19:22:18.707Z,24.20
2018-08-16T19:24:46.971Z,24.30
2018-08-16T19:27:15.326Z,24.20
2018-08-16T19:29:43.644Z,24.30
2018-08-16T19:32:11.987Z,24.30
2018-08-16T19:34:40.276Z,24.30
2018-08-16T19:37:08.640Z,24.20
2018-08-16T19:39:37.088Z,24.20
2018-08-16T19:42:05.399Z,24.20
2018-08-16T19:44:33.715Z,24.30
2018-08-16T19:47:02.092Z,24.30
2018-08-16T19:49:30.714Z,24.30
2018-08-16T19:51:59.034Z,24.30
2018-08-16T19:54:27.374Z,24.30
2018-08-16T19:56:55.774Z,24.30
2018-08-16T19:59:24.137Z,24.30
2018-08-16T20:01:52.435Z,24.30
2018-08-16T20:04:20.724Z,24.30
2018-08-16T20:06:49.112Z,24.30
2018-08-16T20:09:17.450Z,24.30
2018-08-16T20:11:45.767Z,24.30
2018-08-16T20:14:14.092Z,24.30
2018-08-16T20:16:42.820Z,24.30
2018-08-16T20:19:11.166Z,24.30
2018-08-16T20:21:39.487Z,24.30
2018-08-16T20:24:07.917Z,24.40
2018-08-16T20:26:36.194Z,24.40
2018-08-16T20:29:04.607Z,24.40
2018-08-16T20:31:32.866Z,24.40
2018-08-16T20:34:01.175Z,24.40
2018-08-16T20:36:29.455Z,24.40
2018-08-16T20:38:57.839Z,24.40
2018-08-16T20:41:26.158Z,24.40
2018-08-16T20:43:54.435Z,24.40
2018-08-16T20:46:22.899Z,24.40
2018-08-16T20:48:51.344Z,24.40
2018-08-16T20:51:19.677Z,24.40
2018-08-16T20:53:47.995Z,24.40
2018-08-16T20:56:16.343Z,24.40
2018-08-16T20:58:44.867Z,24.40
2018-08-16T21:01:13.267Z,24.40
2018-08-16T21:03:41.668Z,24.40
2018-08-16T21:06:09.988Z,24.40
2018-08-16T21:08:38.444Z,24.40
2018-08-16T21:11:06.991Z,24.40
2018-08-16T21:13:35.279Z,24.50
2018-08-16T21:16:04.083Z,24.40
2018-08-16T21:18:32.580Z,24.40
2018-08-16T21:21:00.934Z,24.40
2018-08-16T21:23:29.237Z,24.40
2018-08-16T21:25:57.556Z,24.40
2018-08-16T21:28:26.060Z,24.40
2018-08-16T21:30:54.438Z,24.40
2018-08-16T21:33:22.744Z,24.40
2018-08-16T21:35:51.202Z,24.40
2018-08-16T21:38:19.628Z,24.40
2018-08-16T21:40:48.111Z,24.40
2018-08-16T21:43:16.762Z,24.40
2018-08-16T21:45:45.120Z,24.40
2018-08-16T21:48:13.407Z,24.40
2018-08-16T21:50:41.891Z,24.40
2018-08-16T21:53:10.217Z,24.40
2018-08-16T21:55:38.496Z,24.40
2018-08-16T21:58:07.021Z,24.40
2018-08-16T22:00:49.554Z,24.40
2018-08-16T22:03:19.314Z,24.40
2018-08-16T22:05:55.297Z,24.40
2018-08-16T22:08:23.931Z,24.40
2018-08-16T22:10:52.215Z,24.40
2018-08-16T22:13:20.506Z,24.40
2018-08-16T22:15:48.800Z,24.40
2018-08-16T22:18:17.090Z,24.30
2018-08-16T22:20:45.362Z,24.40
2018-08-16T22:23:13.643Z,24.40
2018-08-16T22:25:41.926Z,24.40
2018-08-16T22:28:10.211Z,24.40
2018-08-16T22:30:38.487Z,24.40
2018-08-16T22:33:06.791Z,24.40
2018-08-16T22:35:35.080Z,24.50
2018-08-16T22:38:03.386Z,24.50
2018-08-16T22:40:31.893Z,24.50
2018-08-16T22:43:00.172Z,24.50
2018-08-16T22:45:28.467Z,24.50
2018-08-16T22:47:56.888Z,24.50
2018-08-16T22:50:25.170Z,24.40
2018-08-16T22:52:53.450Z,24.50
2018-08-16T22:55:21.735Z,24.50
2018-08-16T22:57:50.016Z,24.50
2018-08-16T23:00:18.347Z,24.50
2018-08-16T23:02:46.627Z,24.50
2018-08-16T23:05:14.989Z,24.50
2018-08-16T23:07:43.458Z,24.40
2018-08-16T23:10:11.739Z,24.50
2018-08-16T23:12:39.999Z,24.50
2018-08-16T23:15:08.767Z,24.50
2018-08-16T23:17:37.040Z,24.50
2018-08-16T23:20:06.200Z,24.50
2018-08-16T23:22:36.286Z,24.50
2018-08-16T23:25:04.827Z,24.50
2018-08-16T23:27:33.101Z,24.50
2018-08-16T23:30:01.396Z,24.50
2018-08-16T23:32:29.725Z,24.50
2018-08-16T23:34:58.104Z,24.50
2018-08-16T23:37:26.392Z,24.50
2018-08-16T23:39:56.063Z,24.60
2018-08-16T23:42:24.340Z,24.60
2018-08-16T23:44:52.631Z,24.50
2018-08-16T23:47:22.998Z,24.60
2018-08-16T23:49:51.341Z,24.60
2018-08-16T23:52:19.763Z,24.60
2018-08-16T23:54:48.238Z,24.60
2018-08-16T23:57:16.611Z,24.60
2018-08-16T23:59:44.924Z,24.60
